createdAt,value
2018-04-18T00:01:38.386Z,9.37
2018-04-18T00:04:06.853Z,13.87
2018-04-18T00:06:35.557Z,11.73
2018-04-18T00:09:03.917Z,11.27
2018-04-18T00:11:32.941Z,13.13
2018-04-18T00:14:02.164Z,11.10
2018-04-18T00:16:30.622Z,10.00
2018-04-18T00:18:59.174Z,13.30
2018-04-18T00:21:27.539Z,10.10
2018-04-18T00:23:56.128Z,14.20
2018-04-18T00:26:24.630Z,12.33
2018-04-18T00:28:53.041Z,14.47
2018-04-18T00:31:21.507Z,12.23
2018-04-18T00:33:49.933Z,12.87
2018-04-18T00:36:18.391Z,10.37
2018-04-18T00:38:46.993Z,17.53
2018-04-18T00:41:15.434Z,9.77
2018-04-18T00:43:43.833Z,10.43
2018-04-18T00:46:12.220Z,15.37
2018-04-18T00:48:40.626Z,14.97
2018-04-18T00:51:09.129Z,11.60
2018-04-18T00:53:37.618Z,12.50
2018-04-18T00:56:06.039Z,11.87
2018-04-18T00:58:34.426Z,13.43
2018-04-18T01:01:03.326Z,13.63
2018-04-18T01:03:32.068Z,11.43
2018-04-18T01:06:00.503Z,15.73
2018-04-18T01:08:29.413Z,9.70
2018-04-18T01:10:59.093Z,15.70
2018-04-18T01:13:27.627Z,13.50
2018-04-18T01:15:56.009Z,9.80
2018-04-18T01:18:24.413Z,20.53
2018-04-18T01:20:52.817Z,12.10
2018-04-18T01:23:21.222Z,14.93
2018-04-18T01:25:49.690Z,13.63
2018-04-18T01:28:18.073Z,14.10
2018-04-18T01:30:46.478Z,11.77
2018-04-18T01:33:14.877Z,14.30
2018-04-18T01:35:43.274Z,16.10
2018-04-18T01:38:11.823Z,16.27
2018-04-18T01:40:40.234Z,14.20
2018-04-18T01:43:08.630Z,16.37
2018-04-18T01:45:36.999Z,14.63
2018-04-18T01:48:05.528Z,15.43
2018-04-18T01:50:33.895Z,14.03
2018-04-18T01:53:02.263Z,16.27
2018-04-18T01:55:30.618Z,12.40
2018-04-18T01:57:59.003Z,19.07
2018-04-18T02:00:27.370Z,12.50
2018-04-18T02:02:55.730Z,14.40
2018-04-18T02:05:24.166Z,16.73
2018-04-18T02:07:52.531Z,17.37
2018-04-18T02:10:20.941Z,16.30
2018-04-18T02:12:49.395Z,14.87
2018-04-18T02:15:17.752Z,11.50
2018-04-18T02:17:46.128Z,19.80
2018-04-18T02:20:14.613Z,16.40
2018-04-18T02:22:43.060Z,14.80
2018-04-18T02:25:11.425Z,12.60
2018-04-18T02:27:39.897Z,15.63
2018-04-18T02:30:09.235Z,15.43
2018-04-18T02:32:37.573Z,18.33
2018-04-18T02:35:06.045Z,16.37
2018-04-18T02:37:34.421Z,24.87
2018-04-18T02:40:02.830Z,18.00
2018-04-18T02:42:31.185Z,15.07
2018-04-18T02:44:59.559Z,20.13
2018-04-18T02:47:28.040Z,18.23
2018-04-18T02:49:56.415Z,23.17
2018-04-18T02:52:24.810Z,15.10
2018-04-18T02:54:53.210Z,19.50
2018-04-18T02:57:21.711Z,13.07
2018-04-18T02:59:50.114Z,17.53
2018-04-18T03:02:18.519Z,18.60
2018-04-18T03:04:46.918Z,20.80
2018-04-18T03:07:15.331Z,24.10
2018-04-18T03:09:43.739Z,19.43
2018-04-18T03:12:12.139Z,16.00
2018-04-18T03:14:40.643Z,14.83
2018-04-18T03:17:09.112Z,14.40
2018-04-18T03:19:37.509Z,18.93
2018-04-18T03:22:05.895Z,19.63
2018-04-18T03:24:34.305Z,16.13
2018-04-18T03:27:02.712Z,19.40
2018-04-18T03:29:31.095Z,18.43
2018-04-18T03:31:59.485Z,17.00
2018-04-18T03:34:27.891Z,16.07
2018-04-18T03:36:56.349Z,23.40
2018-04-18T03:39:24.744Z,17.87
2018-04-18T03:41:53.137Z,20.87
2018-04-18T03:44:21.589Z,25.07
2018-04-18T03:46:50.898Z,20.43
2018-04-18T03:49:19.286Z,16.30
2018-04-18T03:51:47.785Z,24.00
2018-04-18T03:54:16.226Z,15.03
2018-04-18T03:56:44.769Z,19.73
2018-04-18T03:59:13.173Z,17.20
2018-04-18T04:01:41.546Z,15.37
2018-04-18T04:04:09.949Z,17.10
2018-04-18T04:06:38.425Z,18.07
2018-04-18T04:09:06.866Z,18.43
2018-04-18T04:11:35.223Z,23.33
2018-04-18T04:14:03.607Z,25.97
2018-04-18T04:16:43.679Z,30.73
2018-04-18T04:19:23.759Z,19.47
2018-04-18T04:22:03.785Z,17.53
2018-04-18T04:24:40.777Z,32.13
2018-04-18T04:27:09.400Z,23.30
2018-04-18T04:29:37.859Z,19.97
2018-04-18T04:32:06.346Z,15.03
2018-04-18T04:34:34.776Z,21.73
2018-04-18T04:37:03.300Z,16.20
2018-04-18T04:39:31.733Z,19.57
2018-04-18T04:42:00.438Z,13.60
2018-04-18T04:44:29.222Z,18.60
2018-04-18T04:46:58.055Z,25.00
2018-04-18T04:49:26.789Z,19.40
2018-04-18T04:51:55.408Z,14.60
2018-04-18T04:54:32.434Z,20.43
2018-04-18T04:57:01.051Z,15.33
2018-04-18T04:59:29.793Z,23.23
2018-04-18T05:01:58.487Z,24.00
2018-04-18T05:04:27.293Z,17.80
2018-04-18T05:06:56.122Z,14.60
2018-04-18T05:09:24.934Z,14.77
2018-04-18T05:11:53.383Z,20.90
2018-04-18T05:14:21.811Z,18.50
2018-04-18T05:16:50.202Z,21.63
2018-04-18T05:19:18.708Z,21.23
2018-04-18T05:21:47.158Z,20.37
2018-04-18T05:24:15.561Z,18.60
2018-04-18T05:26:44.055Z,16.80
2018-04-18T05:29:12.473Z,29.23
2018-04-18T05:31:40.869Z,15.33
2018-04-18T05:34:09.348Z,21.50
2018-04-18T05:36:38.177Z,21.70
2018-04-18T05:39:06.996Z,24.93
2018-04-18T05:41:35.770Z,19.80
2018-04-18T05:44:04.547Z,19.23
2018-04-18T05:46:33.172Z,18.80
2018-04-18T05:49:01.911Z,14.57
2018-04-18T05:51:30.585Z,16.17
2018-04-18T05:53:59.116Z,31.27
2018-04-18T05:56:27.814Z,22.17
2018-04-18T05:58:56.531Z,18.53
2018-04-18T06:01:25.028Z,25.43
2018-04-18T06:03:53.720Z,16.87
2018-04-18T06:06:22.268Z,18.27
2018-04-18T06:08:50.677Z,17.63
2018-04-18T06:11:19.391Z,16.23
2018-04-18T06:13:48.472Z,14.03
2018-04-18T06:16:17.338Z,19.13
2018-04-18T06:18:46.120Z,17.10
2018-04-18T06:21:14.830Z,17.37
2018-04-18T06:23:44.230Z,13.60
2018-04-18T06:26:13.057Z,10.30
2018-04-18T06:28:42.336Z,14.23
2018-04-18T06:31:11.496Z,18.03
2018-04-18T06:33:40.070Z,20.47
2018-04-18T06:36:09.171Z,19.33
2018-04-18T06:38:37.666Z,13.80
2018-04-18T06:41:06.183Z,10.40
2018-04-18T06:43:34.586Z,13.30
2018-04-18T06:46:02.985Z,12.47
2018-04-18T06:48:31.378Z,8.17
2018-04-18T06:50:59.784Z,30.07
2018-04-18T06:53:28.227Z,11.50
2018-04-18T06:55:56.600Z,14.33
2018-04-18T06:58:24.983Z,12.20
2018-04-18T07:00:53.381Z,7.30
2018-04-18T07:03:21.763Z,8.83
2018-04-18T07:05:50.159Z,11.60
2018-04-18T07:08:18.560Z,11.13
2018-04-18T07:10:46.994Z,9.10
2018-04-18T07:13:15.495Z,8.10
2018-04-18T07:15:43.895Z,8.80
2018-04-18T07:18:12.263Z,10.70
2018-04-18T07:20:40.670Z,11.80
2018-04-18T07:23:09.121Z,19.63
2018-04-18T07:25:37.547Z,25.30
2018-04-18T07:28:05.930Z,10.13
2018-04-18T07:30:34.322Z,10.47
2018-04-18T07:33:02.703Z,7.23
2018-04-18T07:35:31.242Z,7.70
2018-04-18T07:37:59.635Z,9.73
2018-04-18T07:40:28.021Z,9.80
2018-04-18T07:42:56.422Z,6.57
2018-04-18T07:45:24.798Z,8.83
2018-04-18T07:47:53.244Z,7.00
2018-04-18T07:50:21.597Z,16.07
2018-04-18T07:52:50.002Z,9.67
2018-04-18T07:55:18.413Z,10.37
2018-04-18T07:57:47.776Z,13.00
2018-04-18T08:00:16.302Z,12.13
2018-04-18T08:02:44.908Z,6.33
2018-04-18T08:05:13.541Z,9.03
2018-04-18T08:07:42.244Z,6.27
2018-04-18T08:10:10.851Z,7.57
2018-04-18T08:12:39.407Z,6.03
2018-04-18T08:15:08.110Z,9.83
2018-04-18T08:17:36.853Z,10.50
2018-04-18T08:20:05.600Z,7.60
2018-04-18T08:22:34.098Z,9.43
2018-04-18T08:25:02.462Z,6.43
2018-04-18T08:27:30.827Z,9.40
2018-04-18T08:29:59.188Z,7.97
2018-04-18T08:32:27.879Z,3.90
2018-04-18T08:34:56.290Z,7.43
2018-04-18T08:37:24.647Z,6.93
2018-04-18T08:39:53.044Z,10.50
2018-04-18T08:42:21.684Z,10.60
2018-04-18T08:44:57.679Z,12.20
2018-04-18T08:47:27.676Z,8.17
2018-04-18T08:49:56.761Z,6.83
2018-04-18T08:52:25.218Z,4.77
2018-04-18T08:54:53.609Z,5.63
2018-04-18T08:57:22.005Z,10.03
2018-04-18T08:59:50.430Z,7.20
2018-04-18T09:02:18.792Z,6.40
2018-04-18T09:04:47.147Z,7.10
2018-04-18T09:07:15.557Z,8.20
2018-04-18T09:09:43.928Z,11.53
2018-04-18T09:12:14.285Z,9.73
2018-04-18T09:14:42.669Z,9.00
2018-04-18T09:17:11.056Z,12.13
2018-04-18T09:19:40.413Z,7.27
2018-04-18T09:22:09.647Z,5.70
2018-04-18T09:24:38.410Z,8.43
2018-04-18T09:27:06.819Z,8.73
2018-04-18T09:29:36.622Z,13.07
2018-04-18T09:32:05.021Z,10.70
2018-04-18T09:34:33.382Z,8.50
2018-04-18T09:37:01.734Z,8.23
2018-04-18T09:39:30.103Z,11.43
2018-04-18T09:41:58.518Z,7.07
2018-04-18T09:44:26.901Z,7.23
2018-04-18T09:46:55.267Z,9.40
2018-04-18T09:49:23.636Z,8.50
2018-04-18T09:51:52.031Z,16.63
2018-04-18T09:54:20.459Z,8.47
2018-04-18T09:56:48.809Z,9.10
2018-04-18T09:59:17.241Z,9.03
2018-04-18T10:01:47.709Z,13.07
2018-04-18T10:04:31.385Z,9.50
2018-04-18T10:06:59.741Z,8.20
2018-04-18T10:09:28.127Z,6.37
2018-04-18T10:11:56.528Z,7.43
2018-04-18T10:14:24.900Z,9.70
2018-04-18T10:16:53.273Z,10.60
2018-04-18T10:19:21.645Z,7.93
2018-04-18T10:21:50.001Z,7.00
2018-04-18T10:24:18.431Z,8.70
2018-04-18T10:26:46.983Z,7.30
2018-04-18T10:29:15.341Z,8.77
2018-04-18T10:31:43.717Z,20.53
2018-04-18T10:34:12.087Z,23.23
2018-04-18T10:36:40.489Z,6.90
2018-04-18T10:39:08.855Z,7.70
2018-04-18T10:41:37.220Z,8.13
2018-04-18T10:44:05.588Z,9.93
2018-04-18T10:46:34.043Z,10.20
2018-04-18T10:49:02.557Z,7.20
2018-04-18T10:51:31.277Z,9.60
2018-04-18T10:53:59.723Z,6.40
2018-04-18T10:56:28.216Z,13.43
2018-04-18T10:58:56.655Z,8.43
2018-04-18T11:01:25.070Z,12.27
2018-04-18T11:03:53.438Z,12.10
2018-04-18T11:06:21.810Z,10.70
2018-04-18T11:08:50.175Z,9.77
2018-04-18T11:11:18.566Z,13.60
2018-04-18T11:13:46.932Z,11.73
2018-04-18T11:16:15.318Z,11.87
2018-04-18T11:18:43.767Z,9.67
2018-04-18T11:21:12.099Z,8.60
2018-04-18T11:23:40.479Z,8.87
2018-04-18T11:26:08.840Z,6.83
2018-04-18T11:28:37.210Z,7.77
2018-04-18T11:31:05.808Z,9.20
2018-04-18T11:33:34.234Z,9.03
2018-04-18T11:36:02.628Z,11.87
2018-04-18T11:38:31.347Z,8.13
2018-04-18T11:40:59.852Z,7.90
2018-04-18T11:43:28.242Z,7.80
2018-04-18T11:45:56.711Z,4.77
2018-04-18T11:48:25.162Z,8.83
2018-04-18T11:50:53.600Z,10.07
2018-04-18T11:53:22.929Z,7.00
2018-04-18T11:55:51.310Z,8.60
2018-04-18T11:58:19.719Z,8.63
2018-04-18T12:00:48.118Z,15.93
2018-04-18T12:03:16.677Z,11.77
2018-04-18T12:05:45.069Z,9.23
2018-04-18T12:08:13.479Z,8.40
2018-04-18T12:10:41.858Z,6.87
2018-04-18T12:13:10.271Z,6.90
2018-04-18T12:15:38.717Z,8.33
2018-04-18T12:18:07.120Z,9.27
2018-04-18T12:20:35.522Z,8.10
2018-04-18T12:23:03.910Z,8.07
2018-04-18T12:25:32.323Z,6.90
2018-04-18T12:28:00.696Z,5.70
2018-04-18T12:30:31.982Z,11.47
2018-04-18T12:33:00.424Z,6.50
2018-04-18T12:35:28.803Z,9.70
2018-04-18T12:37:57.166Z,5.90
2018-04-18T12:40:25.812Z,4.60
2018-04-18T12:42:54.172Z,8.37
2018-04-18T12:45:22.618Z,6.37
2018-04-18T12:47:51.006Z,7.83
2018-04-18T12:50:19.383Z,8.90
2018-04-18T12:52:47.755Z,8.03
2018-04-18T12:55:16.123Z,4.93
2018-04-18T12:57:44.601Z,9.10
2018-04-18T13:00:13.136Z,8.70
2018-04-18T13:02:41.606Z,11.50
2018-04-18T13:05:09.975Z,7.27
2018-04-18T13:07:38.386Z,11.10
2018-04-18T13:10:06.783Z,4.07
2018-04-18T13:12:35.189Z,7.10
2018-04-18T13:15:03.621Z,6.13
2018-04-18T13:17:32.000Z,9.33
2018-04-18T13:20:00.392Z,6.83
2018-04-18T13:22:28.783Z,7.43
2018-04-18T13:24:57.296Z,8.33
2018-04-18T13:27:28.210Z,8.97
2018-04-18T13:29:56.750Z,4.47
2018-04-18T13:32:25.294Z,12.00
2018-04-18T13:34:54.201Z,11.03
2018-04-18T13:37:22.595Z,5.83
2018-04-18T13:39:51.115Z,5.07
2018-04-18T13:42:19.563Z,6.07
2018-04-18T13:44:47.978Z,4.60
2018-04-18T13:47:16.390Z,7.87
2018-04-18T13:49:44.761Z,7.53
2018-04-18T13:52:13.159Z,7.87
2018-04-18T13:54:41.553Z,7.30
2018-04-18T13:57:09.996Z,5.00
2018-04-18T13:59:38.478Z,10.83
2018-04-18T14:02:06.858Z,8.40
2018-04-18T14:04:35.242Z,5.93
2018-04-18T14:07:03.643Z,7.27
2018-04-18T14:09:32.115Z,7.20
2018-04-18T14:12:00.506Z,6.73
2018-04-18T14:14:28.903Z,12.03
2018-04-18T14:16:57.311Z,6.47
2018-04-18T14:19:25.811Z,10.43
2018-04-18T14:21:54.237Z,5.80
2018-04-18T14:24:22.699Z,8.00
2018-04-18T14:26:51.087Z,7.40
2018-04-18T14:29:19.554Z,4.30
2018-04-18T14:31:48.054Z,6.87
2018-04-18T14:34:16.436Z,7.67
2018-04-18T14:36:44.829Z,4.07
2018-04-18T14:39:13.676Z,6.63
2018-04-18T14:41:42.046Z,7.70
2018-04-18T14:44:10.456Z,9.90
2018-04-18T14:46:38.850Z,7.30
2018-04-18T14:49:07.230Z,5.73
2018-04-18T14:51:35.598Z,5.50
2018-04-18T14:54:04.099Z,5.83
2018-04-18T14:56:32.467Z,4.77
2018-04-18T14:59:00.824Z,5.60
2018-04-18T15:01:29.178Z,2.93
2018-04-18T15:03:57.545Z,4.90
2018-04-18T15:06:25.915Z,9.20
2018-04-18T15:08:54.278Z,6.80
2018-04-18T15:11:22.730Z,9.33
2018-04-18T15:13:51.099Z,6.87
2018-04-18T15:16:19.496Z,7.77
2018-04-18T15:18:47.855Z,5.60
2018-04-18T15:21:16.973Z,5.87
2018-04-18T15:23:45.585Z,7.00
2018-04-18T15:26:14.176Z,7.20
2018-04-18T15:28:44.614Z,6.50
2018-04-18T15:31:14.025Z,7.50
2018-04-18T15:33:42.528Z,4.17
2018-04-18T15:36:10.909Z,4.77
2018-04-18T15:38:39.305Z,4.17
2018-04-18T15:41:07.734Z,4.63
2018-04-18T15:46:21.383Z,5.00
2018-04-18T15:48:49.749Z,9.27
2018-04-18T15:51:18.134Z,7.07
2018-04-18T15:53:46.508Z,5.80
2018-04-18T15:56:14.950Z,8.17
2018-04-18T15:58:43.299Z,5.17
2018-04-18T16:01:11.728Z,5.73
2018-04-18T16:03:40.096Z,4.80
2018-04-18T16:06:08.537Z,9.23
2018-04-18T16:08:36.904Z,4.97
2018-04-18T16:11:05.330Z,5.27
2018-04-18T16:13:33.719Z,6.10
2018-04-18T16:16:02.073Z,3.87
2018-04-18T16:18:30.472Z,11.93
2018-04-18T16:20:58.881Z,5.23
2018-04-18T16:23:27.285Z,8.83
2018-04-18T16:25:55.660Z,5.97
2018-04-18T16:28:24.018Z,6.67
2018-04-18T16:30:52.459Z,6.47
2018-04-18T16:33:20.825Z,5.20
2018-04-18T16:35:49.230Z,6.37
2018-04-18T16:38:17.627Z,6.93
2018-04-18T16:40:45.998Z,11.10
2018-04-18T16:43:14.403Z,8.03
2018-04-18T16:45:42.785Z,11.27
2018-04-18T16:48:11.178Z,8.40
2018-04-18T16:50:39.566Z,7.40
2018-04-18T16:53:07.973Z,2.93
2018-04-18T16:55:36.359Z,6.73
2018-04-18T16:58:04.721Z,3.90
2018-04-18T17:00:33.090Z,5.60
2018-04-18T17:03:01.495Z,6.00
2018-04-18T17:05:29.895Z,3.53
2018-04-18T17:07:58.261Z,4.63
2018-04-18T17:10:26.710Z,7.67
2018-04-18T17:12:55.077Z,6.20
2018-04-18T17:15:23.450Z,6.97
2018-04-18T17:17:52.026Z,4.67
2018-04-18T17:20:21.032Z,5.93
2018-04-18T17:22:51.551Z,5.80
2018-04-18T17:25:19.949Z,5.30
2018-04-18T17:27:48.420Z,7.07
2018-04-18T17:30:16.799Z,3.40
2018-04-18T17:32:45.268Z,3.73
2018-04-18T17:35:13.665Z,6.83
2018-04-18T17:37:42.092Z,4.63
2018-04-18T17:40:10.471Z,4.23
2018-04-18T17:42:38.894Z,8.40
2018-04-18T17:45:07.361Z,10.37
2018-04-18T17:47:35.756Z,9.37
2018-04-18T17:50:04.157Z,7.50
2018-04-18T17:52:32.565Z,5.83
2018-04-18T17:55:01.011Z,7.63
2018-04-18T17:57:29.443Z,6.10
2018-04-18T17:59:57.838Z,4.90
2018-04-18T18:02:26.240Z,6.33
2018-04-18T18:04:54.650Z,14.20
2018-04-18T18:07:23.927Z,13.83
2018-04-18T18:10:06.833Z,13.00
2018-04-18T18:12:35.234Z,7.83
2018-04-18T18:15:03.698Z,16.97
2018-04-18T18:17:32.458Z,7.33
2018-04-18T18:20:01.597Z,6.50
2018-04-18T18:22:30.035Z,5.27
2018-04-18T18:24:58.450Z,12.70
2018-04-18T18:27:26.963Z,11.23
2018-04-18T18:29:55.383Z,16.17
2018-04-18T18:32:23.857Z,10.27
2018-04-18T18:34:52.266Z,10.17
2018-04-18T18:37:20.752Z,5.73
2018-04-18T18:39:49.210Z,8.23
2018-04-18T18:42:17.602Z,10.03
2018-04-18T18:44:46.049Z,7.70
2018-04-18T18:47:14.476Z,13.73
2018-04-18T18:49:42.955Z,15.57
2018-04-18T18:52:11.322Z,14.43
2018-04-18T18:54:39.733Z,20.27
2018-04-18T18:57:08.212Z,3.60
2018-04-18T18:59:36.596Z,6.53
2018-04-18T19:02:05.027Z,5.07
2018-04-18T19:04:33.401Z,7.50
2018-04-18T19:07:01.778Z,12.90
2018-04-18T19:09:30.185Z,5.70
2018-04-18T19:11:58.560Z,8.03
2018-04-18T19:14:27.133Z,8.50
2018-04-18T19:16:55.632Z,11.70
2018-04-18T19:19:24.034Z,16.67
2018-04-18T19:21:52.410Z,9.93
2018-04-18T19:24:20.808Z,13.70
2018-04-18T19:26:49.214Z,10.80
2018-04-18T19:29:17.656Z,6.07
2018-04-18T19:31:46.047Z,6.30
2018-04-18T19:34:14.454Z,8.10
2018-04-18T19:36:42.865Z,8.20
2018-04-18T19:39:11.533Z,11.00
2018-04-18T19:41:40.282Z,10.07
2018-04-18T19:44:08.759Z,12.97
2018-04-18T19:46:37.278Z,13.37
2018-04-18T19:49:05.758Z,12.53
2018-04-18T19:51:34.593Z,7.50
2018-04-18T19:54:02.997Z,9.53
2018-04-18T19:56:31.469Z,9.13
2018-04-18T19:58:59.967Z,12.53
2018-04-18T20:01:28.372Z,10.03
2018-04-18T20:03:56.802Z,13.50
2018-04-18T20:06:25.196Z,10.70
2018-04-18T20:08:53.629Z,10.00
2018-04-18T20:11:22.043Z,5.60
2018-04-18T20:13:50.445Z,9.63
2018-04-18T20:16:18.851Z,10.00
2018-04-18T20:18:47.255Z,27.83
2018-04-18T20:21:15.753Z,12.63
2018-04-18T20:23:44.254Z,15.03
2018-04-18T20:26:12.738Z,7.47
2018-04-18T20:28:41.329Z,9.43
2018-04-18T20:31:09.721Z,10.33
2018-04-18T20:33:38.289Z,8.30
2018-04-18T20:36:07.216Z,8.67
2018-04-18T20:38:36.520Z,22.70
2018-04-18T20:41:04.930Z,7.70
2018-04-18T20:43:33.530Z,9.03
2018-04-18T20:46:02.194Z,9.40
2018-04-18T20:48:30.601Z,14.93
2018-04-18T20:50:59.078Z,8.60
2018-04-18T20:53:27.569Z,12.50
2018-04-18T20:55:55.972Z,5.20
2018-04-18T20:58:24.504Z,8.47
2018-04-18T21:00:53.028Z,12.20
2018-04-18T21:03:21.434Z,11.20
2018-04-18T21:05:49.956Z,6.40
2018-04-18T21:08:18.312Z,8.27
2018-04-18T21:10:46.726Z,6.37
2018-04-18T21:13:15.085Z,15.10
2018-04-18T21:15:43.531Z,12.77
2018-04-18T21:18:11.990Z,8.23
2018-04-18T21:20:40.435Z,12.23
2018-04-18T21:23:08.890Z,11.83
2018-04-18T21:25:37.286Z,6.93
2018-04-18T21:28:05.721Z,13.87
2018-04-18T21:30:34.077Z,14.27
2018-04-18T21:33:02.446Z,9.77
2018-04-18T21:35:30.832Z,8.43
2018-04-18T21:37:59.214Z,13.90
2018-04-18T21:40:27.631Z,6.77
2018-04-18T21:42:55.987Z,12.87
2018-04-18T21:45:24.355Z,7.93
2018-04-18T21:47:53.422Z,16.23
2018-04-18T21:50:21.789Z,7.93
2018-04-18T21:52:50.245Z,8.00
2018-04-18T21:55:18.631Z,9.77
2018-04-18T21:57:47.180Z,7.70
2018-04-18T22:00:15.543Z,8.40
2018-04-18T22:02:43.922Z,8.50
2018-04-18T22:05:12.394Z,9.67
2018-04-18T22:07:40.791Z,11.83
2018-04-18T22:10:09.172Z,10.83
2018-04-18T22:12:37.552Z,8.73
2018-04-18T22:15:05.920Z,9.70
2018-04-18T22:17:34.411Z,8.33
2018-04-18T22:20:02.854Z,7.30
2018-04-18T22:22:31.235Z,8.83
2018-04-18T22:24:59.614Z,10.20
2018-04-18T22:27:27.970Z,12.30
2018-04-18T22:29:56.410Z,14.47
2018-04-18T22:32:24.819Z,7.13
2018-04-18T22:34:53.220Z,11.33
2018-04-18T22:37:21.608Z,9.50
2018-04-18T22:39:50.004Z,7.83
2018-04-18T22:42:18.422Z,10.97
2018-04-18T22:44:46.794Z,9.43
2018-04-18T22:47:15.249Z,14.50
2018-04-18T22:49:43.641Z,18.23
2018-04-18T22:52:12.021Z,8.57
2018-04-18T22:54:40.405Z,11.67
2018-04-18T22:57:08.798Z,7.67
2018-04-18T22:59:37.154Z,9.40
2018-04-18T23:02:05.547Z,14.20
2018-04-18T23:04:34.003Z,11.90
2018-04-18T23:07:02.416Z,11.13
2018-04-18T23:09:30.839Z,11.17
2018-04-18T23:11:59.234Z,10.73
2018-04-18T23:14:27.727Z,9.53
2018-04-18T23:16:56.207Z,9.23
2018-04-18T23:19:24.593Z,14.93
2018-04-18T23:21:52.993Z,12.97
2018-04-18T23:24:21.371Z,12.20
2018-04-18T23:26:49.797Z,13.77
2018-04-18T23:29:18.207Z,14.70
2018-04-18T23:31:46.626Z,11.07
2018-04-18T23:34:15.067Z,10.70
2018-04-18T23:36:43.413Z,9.83
2018-04-18T23:39:11.780Z,11.43
2018-04-18T23:41:40.146Z,8.87
2018-04-18T23:44:08.561Z,10.50
2018-04-18T23:46:36.914Z,9.07
2018-04-18T23:49:05.334Z,12.20
2018-04-18T23:51:33.706Z,13.20
2018-04-18T23:54:02.089Z,7.70
2018-04-18T23:56:30.448Z,8.30
2018-04-18T23:58:58.801Z,7.47
